Time;durP1;ratioP1;P1;durP2;ratioP2;P2;SDS_P1;SDS_P2;PMS_P1;PMS_P2;Temp;Humidity;BMP_temperature;BMP_pressure;BME280_temperature;BME280_humidity;BME280_pressure;Samples;Min_cycle;Max_cycle;Signal;HPM_P1;HPM_P2
2023/02/23 00:01:10;;;;;;;5.10;1.73;;;;;;;6.31;72.26;101194.53;5113246;28;20026;-67
2023/02/23 00:03:35;;;;;;;2.38;1.60;;;;;;;6.40;72.84;101222.13;5103802;28;20028;-67
2023/02/23 00:06:04;;;;;;;4.75;1.63;;;;;;;6.50;72.30;101214.81;5100067;28;20024;-67
2023/02/23 00:08:29;;;;;;;2.35;1.55;;;;;;;6.43;72.80;101213.78;5099650;28;20031;-67
2023/02/23 00:10:59;;;;;;;6.07;2.00;;;;;;;6.47;72.89;101212.47;5098760;28;20020;-67
2023/02/23 00:13:24;;;;;;;3.85;1.70;;;;;;;6.50;72.65;101211.31;5098739;28;20028;-67
2023/02/23 00:15:49;;;;;;;5.05;1.88;;;;;;;6.54;72.96;101209.97;5097046;28;20114;-66
2023/02/23 00:18:16;;;;;;;5.22;1.75;;;;;;;6.48;72.89;101203.44;5095828;28;20135;-67
2023/02/23 00:20:45;;;;;;;4.60;2.00;;;;;;;6.46;73.29;101202.78;5098495;28;20035;-67
2023/02/23 00:23:12;;;;;;;3.67;1.83;;;;;;;6.32;73.20;101173.97;5097894;28;20130;-67
2023/02/23 00:25:37;;;;;;;5.68;2.05;;;;;;;6.41;73.80;101198.91;5099962;28;20039;-66
2023/02/23 00:28:06;;;;;;;5.40;2.15;;;;;;;6.44;73.62;101195.91;5099095;28;20111;-67
2023/02/23 00:30:33;;;;;;;5.30;2.10;;;;;;;6.51;73.60;101195.09;5100007;28;20043;-67
2023/02/23 00:32:58;;;;;;;5.55;2.30;;;;;;;6.44;73.61;101188.72;5098198;28;20486;-67
2023/02/23 00:35:24;;;;;;;5.63;2.40;;;;;;;6.52;73.70;101183.41;5099559;28;20028;-67
2023/02/23 00:37:49;;;;;;;5.53;2.42;;;;;;;6.47;73.57;101167.00;5098391;28;20081;-67
2023/02/23 00:40:16;;;;;;;5.90;2.15;;;;;;;6.46;74.21;101176.03;5080313;28;20028;-67
2023/02/23 00:42:46;;;;;;;6.35;2.25;;;;;;;6.45;74.69;101170.84;5099762;28;20032;-67
2023/02/23 00:45:12;;;;;;;6.40;2.33;;;;;;;6.42;75.10;101173.84;5098916;28;20036;-67
2023/02/23 00:47:41;;;;;;;7.68;2.40;;;;;;;6.39;75.77;101169.69;5081077;28;20035;-67
2023/02/23 00:50:14;;;;;;;6.82;2.85;;;;;;;6.42;75.25;101168.50;5098361;28;20061;-67
2023/02/23 00:52:41;;;;;;;5.90;2.67;;;;;;;6.35;74.86;101147.75;5098161;28;20028;-66
2023/02/23 00:55:08;;;;;;;4.65;2.90;;;;;;;6.38;75.73;101161.81;5099578;28;20032;-67
2023/02/23 00:57:34;;;;;;;4.85;2.58;;;;;;;6.33;75.80;101167.66;5099083;28;20042;-67
2023/02/23 00:59:59;;;;;;;5.85;2.58;;;;;;;6.27;76.37;101155.78;5099443;28;20028;-67
2023/02/23 01:02:29;;;;;;;4.32;2.50;;;;;;;6.31;76.74;101156.28;5097483;28;20372;-67
2023/02/23 01:04:55;;;;;;;3.90;2.40;;;;;;;6.32;76.79;101152.59;5099251;28;20106;-67
2023/02/23 01:07:24;;;;;;;10.70;2.58;;;;;;;6.25;77.06;101140.88;5097575;28;20024;-67
2023/02/23 01:09:50;;;;;;;6.63;2.90;;;;;;;6.24;77.27;101156.09;5080897;28;20044;-67
2023/02/23 01:12:15;;;;;;;7.35;2.97;;;;;;;6.06;77.92;101132.16;5098145;28;20043;-67
2023/02/23 01:14:41;;;;;;;7.15;3.03;;;;;;;6.10;78.56;101132.69;5080595;28;20036;-67
2023/02/23 01:17:06;;;;;;;8.07;2.92;;;;;;;6.12;79.14;101144.00;5097056;28;20031;-68
2023/02/23 01:19:33;;;;;;;6.05;3.05;;;;;;;6.13;78.91;101143.03;5097314;28;20052;-67
2023/02/23 01:22:01;;;;;;;6.95;2.78;;;;;;;6.20;78.31;101137.88;5097156;28;20031;-67
2023/02/23 01:24:27;;;;;;;7.43;3.05;;;;;;;5.95;79.35;101112.91;5098527;28;20053;-66
2023/02/23 01:26:53;;;;;;;7.07;3.30;;;;;;;6.07;79.62;101133.81;5097069;28;20020;-67
2023/02/23 01:29:18;;;;;;;10.00;3.28;;;;;;;6.06;79.99;101128.63;5097159;28;20039;-67
2023/02/23 01:31:46;;;;;;;5.78;3.38;;;;;;;5.84;80.95;101100.66;5096446;28;20052;-67
2023/02/23 01:34:13;;;;;;;7.85;3.40;;;;;;;6.10;80.23;101117.47;5096535;28;20115;-67
2023/02/23 01:36:41;;;;;;;7.47;3.72;;;;;;;6.00;80.74;101116.78;5098481;28;20020;-66
2023/02/23 01:39:10;;;;;;;9.40;3.75;;;;;;;6.02;81.02;101114.75;5095864;28;20043;-67
2023/02/23 01:41:37;;;;;;;6.00;3.08;;;;;;;5.84;81.17;101098.81;5098010;28;20038;-67
2023/02/23 01:44:12;;;;;;;9.38;3.63;;;;;;;5.87;81.54;101097.66;5096462;28;20028;-67
2023/02/23 01:46:42;;;;;;;9.85;3.88;;;;;;;5.99;81.54;101104.41;5096728;28;20016;-67
2023/02/23 01:49:14;;;;;;;7.20;3.58;;;;;;;5.93;81.75;101102.41;5094961;28;20043;-67
2023/02/23 01:51:44;;;;;;;7.07;3.50;;;;;;;5.85;82.52;101099.66;5096389;28;20089;-67
2023/02/23 01:54:15;;;;;;;9.15;3.63;;;;;;;5.82;83.05;101103.47;5098409;28;20641;-67
2023/02/23 01:56:45;;;;;;;9.57;3.92;;;;;;;5.85;83.40;101091.63;5097826;28;20028;-67
2023/02/23 01:59:14;;;;;;;9.20;4.10;;;;;;;5.96;83.25;101087.84;5096098;28;20454;-67
2023/02/23 02:01:40;;;;;;;8.98;3.65;;;;;;;5.80;82.89;101056.59;5096305;28;20019;-67
2023/02/23 02:04:07;;;;;;;8.70;3.58;;;;;;;5.94;83.21;101080.03;5095783;28;20032;-67
2023/02/23 02:06:35;;;;;;;8.82;4.10;;;;;;;5.91;83.85;101064.28;5097882;28;20039;-67
2023/02/23 02:09:06;;;;;;;8.77;3.85;;;;;;;5.95;83.93;101067.50;5098283;28;20323;-67
2023/02/23 02:11:36;;;;;;;10.43;3.97;;;;;;;5.86;84.05;101051.44;5096246;28;20019;-67
2023/02/23 02:14:35;;;;;;;8.40;3.72;;;;;;;5.93;84.52;101062.34;5094453;28;20178;-67
2023/02/23 02:17:21;;;;;;;8.20;3.67;;;;;;;5.91;84.76;101053.59;5096165;28;20043;-67
2023/02/23 02:20:31;;;;;;;12.30;4.07;;;;;;;5.93;84.80;101042.78;5099420;28;20047;-67
2023/02/23 02:23:03;;;;;;;7.15;3.47;;;;;;;5.88;85.88;101041.41;5096424;28;20028;-67
2023/02/23 02:25:34;;;;;;;9.63;4.05;;;;;;;5.95;85.30;101038.94;5096740;28;20077;-67
2023/02/23 02:28:40;;;;;;;10.88;3.80;;;;;;;5.91;85.71;101034.91;5097465;28;20052;-67
2023/02/23 02:31:35;;;;;;;11.00;4.25;;;;;;;5.94;85.96;101036.47;5098123;28;20398;-67
2023/02/23 02:34:07;;;;;;;9.52;3.58;;;;;;;5.89;86.34;101023.53;5104393;28;20555;-67
2023/02/23 02:37:01;;;;;;;11.18;3.83;;;;;;;5.98;86.22;101027.13;5102655;28;20060;-67
2023/02/23 02:39:35;;;;;;;7.68;3.88;;;;;;;5.91;86.84;101023.41;5102302;28;20032;-67
2023/02/23 02:42:20;;;;;;;;;;;;;;;5.98;87.06;101027.13;5103338;28;20045;-67
2023/02/23 02:45:14;;;;;;;8.10;3.53;;;;;;;5.92;86.38;101023.22;5103100;28;19946;-67
2023/02/23 02:47:45;;;;;;;13.35;4.30;;;;;;;5.97;86.46;101026.28;5103171;28;20059;-67
2023/02/23 02:50:21;;;;;;;13.07;4.18;;;;;;;5.86;86.53;101007.84;5103945;28;20039;-67
2023/02/23 02:52:55;;;;;;;7.20;3.88;;;;;;;5.90;86.74;101009.22;5103802;28;20024;-67
2023/02/23 02:55:25;;;;;;;7.35;3.97;;;;;;;5.99;87.12;101023.44;5103836;28;20540;-68
2023/02/23 02:57:56;;;;;;;8.57;4.07;;;;;;;5.92;87.23;101015.22;5104154;28;20447;-67
2023/02/23 04:18:25;;;;;;;14.65;6.05;;;;;;;6.20;91.12;100932.97;5098084;28;20051;-67
2023/02/23 04:20:51;;;;;;;10.52;5.45;;;;;;;6.27;90.71;100935.81;5097582;28;20410;-68
2023/02/23 04:23:17;;;;;;;10.93;5.53;;;;;;;6.23;90.65;100932.63;5096579;28;20028;-67
2023/02/23 04:25:43;;;;;;;12.52;5.22;;;;;;;6.11;90.78;100913.44;5098032;28;20062;-67
2023/02/23 04:28:08;;;;;;;13.52;5.15;;;;;;;6.05;91.16;100911.41;5096683;28;20028;-68
2023/02/23 04:30:34;;;;;;;11.93;5.35;;;;;;;6.25;91.44;100921.78;5097325;28;20478;-67
2023/02/23 04:32:59;;;;;;;13.82;5.60;;;;;;;6.26;91.76;100923.47;5095732;28;20035;-67
2023/02/23 04:35:27;;;;;;;15.80;5.70;;;;;;;6.27;91.54;100919.78;5093839;28;20043;-67
2023/02/23 04:37:53;;;;;;;11.40;5.78;;;;;;;6.29;91.73;100917.75;5095959;28;20038;-67
2023/02/23 04:40:19;;;;;;;13.60;5.82;;;;;;;6.24;91.98;100914.75;5097050;28;20024;-68
2023/02/23 04:42:44;;;;;;;13.73;6.47;;;;;;;6.30;92.10;100906.91;5096115;28;20566;-67
2023/02/23 04:45:10;;;;;;;14.40;6.28;;;;;;;6.28;92.51;100913.41;5098723;28;20106;-67
2023/02/23 04:47:35;;;;;;;14.43;6.20;;;;;;;6.34;92.34;100915.41;5097819;28;20032;-68
2023/02/23 04:50:01;;;;;;;15.35;6.55;;;;;;;6.25;92.81;100914.59;5097593;28;20034;-68
2023/02/23 04:52:27;;;;;;;14.68;6.30;;;;;;;6.37;92.45;100915.09;5098993;28;20031;-68
2023/02/23 04:54:52;;;;;;;19.05;6.80;;;;;;;6.40;92.34;100914.75;5098713;28;20024;-68
2023/02/23 04:57:17;;;;;;;14.20;7.43;;;;;;;6.23;92.68;100889.88;5081365;28;20050;-68
2023/02/23 04:59:43;;;;;;;14.20;6.80;;;;;;;6.42;92.78;100920.75;5080973;28;20462;-67
2023/02/23 05:02:08;;;;;;;17.63;6.65;;;;;;;6.39;93.02;100909.56;5096040;28;20470;-68
2023/02/23 05:04:34;;;;;;;20.00;7.85;;;;;;;6.08;92.47;100849.63;5093329;28;20039;-68
2023/02/23 05:07:00;;;;;;;21.17;8.15;;;;;;;6.53;92.77;100909.72;5096134;28;20507;-68
2023/02/23 05:09:26;;;;;;;15.75;7.10;;;;;;;6.43;93.27;100908.25;5097531;28;20055;-70
2023/02/23 05:11:51;;;;;;;18.83;7.63;;;;;;;6.48;93.06;100906.69;5098263;28;20502;-69
2023/02/23 05:14:17;;;;;;;16.08;7.93;;;;;;;6.41;93.24;100887.00;5097935;28;20043;-67
2023/02/23 05:16:42;;;;;;;16.73;7.60;;;;;;;6.42;94.03;100895.84;5082511;28;20059;-68
2023/02/23 05:19:07;;;;;;;20.52;7.70;;;;;;;6.47;93.77;100888.19;5081448;28;20059;-67
2023/02/23 05:21:33;;;;;;;18.13;7.57;;;;;;;6.50;93.65;100899.38;5099237;28;20051;-67
2023/02/23 05:23:59;;;;;;;18.17;7.47;;;;;;;6.45;94.28;100884.81;5082747;28;20054;-68
2023/02/23 05:26:24;;;;;;;19.95;8.18;;;;;;;6.56;93.80;100887.16;5098706;28;20905;-68
2023/02/23 05:28:50;;;;;;;20.10;8.23;;;;;;;6.57;94.39;100888.81;5100684;28;20028;-69
2023/02/23 05:31:16;;;;;;;16.45;7.88;;;;;;;6.50;94.70;100888.66;5097867;28;20487;-68
2023/02/23 05:33:41;;;;;;;20.27;8.85;;;;;;;6.49;95.03;100895.03;5094506;28;20020;-68
2023/02/23 05:36:09;;;;;;;21.45;8.55;;;;;;;6.48;95.64;100898.69;5091776;28;20039;-66
2023/02/23 05:38:35;;;;;;;19.05;8.32;;;;;;;6.43;96.13;100894.88;5094871;28;20034;-68
2023/02/23 05:41:05;;;;;;;17.38;8.20;;;;;;;6.51;95.86;100889.50;5095345;28;20028;-68
2023/02/23 05:43:30;;;;;;;26.65;8.80;;;;;;;6.55;95.36;100891.66;5095827;28;20032;-68
2023/02/23 05:45:56;;;;;;;19.08;8.30;;;;;;;6.57;95.29;100894.16;5077733;28;20042;-67
2023/02/23 05:48:22;;;;;;;21.63;7.93;;;;;;;6.54;95.39;100894.50;5096031;28;20391;-67
2023/02/23 05:50:48;;;;;;;20.50;8.93;;;;;;;6.62;95.23;100885.63;5097581;28;20514;-67
2023/02/23 05:53:13;;;;;;;22.02;8.77;;;;;;;6.64;95.65;100887.13;5096595;28;20143;-67
2023/02/23 05:55:38;;;;;;;21.23;9.27;;;;;;;6.63;95.95;100890.81;5098441;28;20024;-67
2023/02/23 05:58:04;;;;;;;22.70;8.95;;;;;;;6.71;95.12;100879.25;5076517;28;20038;-68
2023/02/23 06:00:29;;;;;;;24.48;9.25;;;;;;;6.74;95.30;100878.91;5075271;28;20554;-67
2023/02/23 06:02:55;;;;;;;26.65;10.05;;;;;;;6.77;95.29;100878.56;5076189;28;20039;-67
2023/02/23 06:05:20;;;;;;;19.17;8.93;;;;;;;6.76;95.61;100871.56;5075552;28;20074;-67
2023/02/23 06:07:46;;;;;;;29.08;10.00;;;;;;;6.82;95.49;100871.69;5075565;28;20103;-67
2023/02/23 06:10:13;;;;;;;28.50;9.70;;;;;;;6.81;95.47;100861.16;5076646;28;20031;-67
2023/02/23 06:12:38;;;;;;;26.25;10.15;;;;;;;6.83;95.65;100859.16;5075827;28;20107;-68
2023/02/23 06:15:05;;;;;;;27.27;10.48;;;;;;;6.68;96.24;100847.50;5077421;28;20044;-68
2023/02/23 06:17:30;;;;;;;25.45;10.00;;;;;;;6.79;96.17;100855.16;5075468;28;20058;-68
2023/02/23 06:19:57;;;;;;;30.73;10.98;;;;;;;6.87;95.81;100856.97;5075747;28;20110;-68
2023/02/23 06:22:23;;;;;;;29.25;10.23;;;;;;;6.89;95.92;100853.13;5074509;28;20039;-68
2023/02/23 06:24:48;;;;;;;34.88;11.30;;;;;;;6.79;96.04;100833.78;5091144;28;20024;-67
2023/02/23 06:27:14;;;;;;;31.73;11.48;;;;;;;6.86;95.68;100834.75;5072532;28;20179;-67
2023/02/23 06:29:40;;;;;;;31.15;10.93;;;;;;;6.90;96.29;100841.41;5071369;28;20068;-68
2023/02/23 06:32:05;;;;;;;33.53;11.52;;;;;;;7.01;96.32;100853.56;5073494;28;20376;-67
2023/02/23 06:34:32;;;;;;;38.85;11.88;;;;;;;7.04;96.39;100858.56;5076255;28;20028;-67
2023/02/23 06:36:58;;;;;;;33.30;11.88;;;;;;;7.03;96.84;100852.38;5072078;28;20495;-67
2023/02/23 06:39:23;;;;;;;37.78;12.20;;;;;;;7.13;96.58;100851.34;5069956;28;20044;-68
2023/02/23 06:41:49;;;;;;;32.55;12.07;;;;;;;7.10;96.22;100846.34;5070037;28;20058;-68
2023/02/23 06:44:14;;;;;;;36.38;12.20;;;;;;;7.12;96.90;100860.34;5070232;28;20082;-67
2023/02/23 06:46:39;;;;;;;38.28;12.68;;;;;;;7.07;96.85;100836.81;5072585;28;20088;-67
2023/02/23 06:49:05;;;;;;;35.80;12.30;;;;;;;7.21;96.60;100857.47;5073542;28;20032;-68
2023/02/23 06:51:30;;;;;;;32.22;12.48;;;;;;;7.12;97.20;100860.34;5075695;28;20380;-67
2023/02/23 06:53:56;;;;;;;43.10;13.35;;;;;;;7.17;97.57;100858.00;5074280;28;20025;-67
2023/02/23 06:56:21;;;;;;;37.95;11.85;;;;;;;7.18;97.66;100859.66;5074856;28;20024;-67
2023/02/23 06:58:47;;;;;;;39.80;14.07;;;;;;;7.20;97.08;100850.44;5091007;28;20036;-67
2023/02/23 07:01:14;;;;;;;34.15;11.82;;;;;;;7.26;97.51;100856.94;5073764;28;20093;-68
2023/02/23 07:03:40;;;;;;;36.50;13.80;;;;;;;7.14;97.89;100836.94;5076789;28;20181;-67
2023/02/23 07:06:06;;;;;;;40.80;13.50;;;;;;;7.37;97.62;100855.72;5075954;28;20112;-68
2023/02/23 07:08:32;;;;;;;42.05;14.02;;;;;;;7.39;97.54;100851.03;5077209;28;20028;-68
2023/02/23 07:11:09;;;;;;;38.95;13.80;;;;;;;7.23;97.63;100834.03;5075894;28;20119;-68
2023/02/23 07:13:35;;;;;;;41.40;13.23;;;;;;;7.24;97.66;100827.66;5076051;28;20131;-68
2023/02/23 07:16:00;;;;;;;42.72;13.77;;;;;;;7.49;97.66;100860.47;5076542;28;20043;-68
2023/02/23 07:18:26;;;;;;;40.13;13.10;;;;;;;7.51;97.20;100863.78;5078714;28;20076;-67
2023/02/23 07:20:51;;;;;;;44.10;14.98;;;;;;;7.41;97.51;100830.25;5081136;28;20028;-67
2023/02/23 07:23:17;;;;;;;39.50;13.73;;;;;;;7.52;97.57;100846.75;5079887;28;20028;-68
2023/02/23 07:25:43;;;;;;;52.50;14.38;;;;;;;7.48;97.68;100837.41;5080902;28;20368;-67
2023/02/23 07:28:09;;;;;;;36.35;13.35;;;;;;;7.51;98.22;100838.88;5078683;28;20055;-67
2023/02/23 07:30:34;;;;;;;38.50;14.45;;;;;;;7.60;97.69;100848.50;5095760;28;20032;-67
2023/02/23 07:33:00;;;;;;;29.35;12.95;;;;;;;7.59;98.57;100854.91;5078125;28;20024;-67
2023/02/23 07:35:25;;;;;;;45.10;14.25;;;;;;;6.88;97.44;100744.44;5095382;28;20376;-67
2023/02/23 07:37:51;;;;;;;33.90;13.48;;;;;;;7.66;97.75;100863.88;5079857;28;20044;-67
2023/02/23 07:40:18;;;;;;;45.28;14.20;;;;;;;7.69;97.84;100860.00;5080001;28;20039;-67
2023/02/23 07:42:43;;;;;;;35.67;13.00;;;;;;;7.68;97.79;100858.31;5078071;28;20029;-67
2023/02/23 07:45:10;;;;;;;38.95;12.73;;;;;;;7.69;98.45;100854.66;5078268;28;20076;-68
2023/02/23 07:47:36;;;;;;;38.65;13.32;;;;;;;7.74;97.83;100857.63;5078163;28;20024;-67
2023/02/23 07:50:02;;;;;;;35.47;12.25;;;;;;;7.64;98.44;100854.34;5077944;28;20455;-67
2023/02/23 07:52:28;;;;;;;39.50;12.80;;;;;;;7.71;98.74;100858.78;5079233;28;20025;-67
2023/02/23 07:54:53;;;;;;;43.67;13.23;;;;;;;7.77;98.21;100862.63;5076853;28;20043;-67
2023/02/23 07:57:20;;;;;;;36.05;12.82;;;;;;;7.76;98.19;100850.25;5077755;28;20021;-67
2023/02/23 07:59:49;;;;;;;32.50;12.65;;;;;;;7.78;98.09;100856.22;5079747;28;20082;-67
2023/02/23 08:02:15;;;;;;;30.25;12.50;;;;;;;7.71;99.46;100850.75;5078052;28;20033;-67
2023/02/23 08:04:42;;;;;;;38.67;13.75;;;;;;;7.77;98.92;100855.41;5095939;28;20044;-67
2023/02/23 08:07:08;;;;;;;31.55;13.25;;;;;;;7.47;98.62;100794.72;5108829;28;20012;-67
2023/02/23 08:09:34;;;;;;;35.28;12.88;;;;;;;7.87;98.52;100857.00;5093903;28;20008;-68
2023/02/23 08:12:01;;;;;;;41.00;13.10;;;;;;;7.85;98.65;100849.19;5092639;28;20013;-68
2023/02/23 08:14:27;;;;;;;38.65;13.40;;;;;;;7.82;98.90;100841.50;5093040;28;20563;-67
2023/02/23 08:16:53;;;;;;;31.50;13.13;;;;;;;7.82;99.13;100840.66;5102433;28;20375;-67
2023/02/23 08:19:22;;;;;;;32.70;13.30;;;;;;;7.92;98.49;100833.22;5079098;28;20072;-67
2023/02/23 08:21:49;;;;;;;41.00;13.65;;;;;;;7.91;98.63;100829.69;5079015;28;20052;-68
2023/02/23 08:24:15;;;;;;;35.60;15.68;;;;;;;7.81;98.94;100821.06;5079020;28;20086;-67
2023/02/23 08:26:41;;;;;;;37.92;14.80;;;;;;;7.88;99.01;100826.53;5077298;28;20413;-67
2023/02/23 08:29:06;;;;;;;41.22;15.30;;;;;;;7.97;98.62;100834.31;5077812;28;20075;-67
2023/02/23 08:31:32;;;;;;;43.80;15.30;;;;;;;7.95;99.57;100844.41;5077080;28;20032;-67
2023/02/23 08:33:58;;;;;;;43.60;14.98;;;;;;;7.85;98.96;100808.16;5093420;28;20119;-67
2023/02/23 08:36:24;;;;;;;37.47;14.38;;;;;;;8.06;98.48;100828.88;5076926;28;20032;-67
2023/02/23 08:38:49;;;;;;;40.47;15.25;;;;;;;8.02;99.13;100824.91;5094626;28;20048;-67
2023/02/23 08:41:15;;;;;;;43.65;14.45;;;;;;;7.98;98.38;100813.72;5077167;28;20031;-67
2023/02/23 08:43:41;;;;;;;44.42;15.70;;;;;;;8.11;98.71;100834.53;5078496;28;20044;-67
2023/02/23 08:46:06;;;;;;;42.90;15.60;;;;;;;8.13;99.08;100832.50;5077530;28;20131;-67
2023/02/23 08:48:32;;;;;;;38.83;15.13;;;;;;;8.10;98.72;100819.47;5075004;28;20064;-68
2023/02/23 08:50:59;;;;;;;42.20;16.05;;;;;;;8.15;99.28;100827.81;5077925;28;20036;-68
2023/02/23 08:53:26;;;;;;;42.33;16.65;;;;;;;8.24;99.21;100824.84;5077965;28;20051;-67
2023/02/23 08:56:00;;;;;;;41.38;16.77;;;;;;;8.28;98.67;100814.59;5093466;28;20491;-68
2023/02/23 08:58:27;;;;;;;42.92;17.25;;;;;;;8.27;98.47;100822.81;5078062;28;20502;-67
2023/02/23 09:00:52;;;;;;;52.17;18.58;;;;;;;8.31;98.69;100819.59;5094023;28;20040;-67
2023/02/23 09:03:19;;;;;;;45.00;18.20;;;;;;;8.33;99.09;100825.59;5078027;28;20032;-67
2023/02/23 09:05:44;;;;;;;49.85;19.05;;;;;;;8.35;99.02;100812.00;5093962;28;20028;-68
2023/02/23 09:08:11;;;;;;;50.75;19.00;;;;;;;8.37;99.11;100816.16;5078012;28;20048;-68
2023/02/23 09:10:37;;;;;;;47.42;19.83;;;;;;;8.41;99.33;100803.25;5078160;28;20032;-68
2023/02/23 09:13:02;;;;;;;47.78;19.80;;;;;;;8.41;99.38;100804.09;5078070;28;20027;-67
2023/02/23 09:15:29;;;;;;;52.20;20.48;;;;;;;8.49;99.31;100802.34;5077927;28;20028;-68
2023/02/23 09:18:00;;;;;;;54.25;19.90;;;;;;;8.52;99.59;100801.97;5075492;28;20028;-68
2023/02/23 09:20:25;;;;;;;50.15;19.30;;;;;;;8.39;99.43;100782.00;5090221;28;20081;-68
2023/02/23 09:22:52;;;;;;;51.92;20.17;;;;;;;8.53;99.74;100800.94;5076291;28;20044;-68
2023/02/23 09:25:21;;;;;;;48.20;19.95;;;;;;;8.53;99.39;100804.44;5077256;28;20040;-68
2023/02/23 09:27:48;;;;;;;51.47;19.98;;;;;;;8.57;99.02;100805.72;5092554;28;20166;-68
2023/02/23 09:30:16;;;;;;;55.58;20.63;;;;;;;8.49;99.75;100783.56;5077366;28;20044;-67
2023/02/23 09:32:49;;;;;;;49.72;20.33;;;;;;;8.61;99.49;100800.81;5076167;28;20052;-68
2023/02/23 09:35:17;;;;;;;58.13;20.58;;;;;;;8.60;99.20;100794.63;5093048;28;20032;-68
2023/02/23 09:37:54;;;;;;;50.60;20.92;;;;;;;8.60;99.47;100799.16;5077518;28;20052;-68
2023/02/23 09:40:21;;;;;;;53.42;21.23;;;;;;;8.58;99.80;100796.69;5077086;28;20028;-68
2023/02/23 09:42:57;;;;;;;65.20;22.00;;;;;;;8.62;99.08;100791.78;5076745;28;20055;-68
2023/02/23 09:45:23;;;;;;;56.03;21.77;;;;;;;8.64;99.71;100793.28;5077145;28;20123;-68
2023/02/23 09:48:01;;;;;;;59.97;23.90;;;;;;;8.70;99.85;100794.34;5075934;28;20035;-67
2023/02/23 09:50:29;;;;;;;62.72;23.00;;;;;;;8.67;99.97;100794.72;5092393;28;20055;-68
2023/02/23 09:53:05;;;;;;;61.10;22.13;;;;;;;8.64;100.00;100797.78;5076918;28;20114;-68
2023/02/23 09:55:31;;;;;;;69.65;24.52;;;;;;;8.67;99.55;100792.03;5092651;28;20024;-67
2023/02/23 09:58:05;;;;;;;60.97;23.50;;;;;;;8.77;99.56;100794.44;5092057;28;20031;-68
2023/02/23 10:00:41;;;;;;;67.77;23.97;;;;;;;8.74;99.99;100786.75;5076816;28;20102;-68
2023/02/23 10:03:16;;;;;;;71.70;24.13;;;;;;;8.74;100.00;100787.63;5077651;28;20024;-68
2023/02/23 10:05:47;;;;;;;;;;;;;;;8.81;99.89;100783.16;5076169;28;20028;-68
2023/02/23 10:08:18;;;;;;;63.65;23.33;;;;;;;8.82;99.75;100782.13;5076246;28;20314;-68
2023/02/23 10:10:52;;;;;;;68.53;24.20;;;;;;;8.84;99.33;100774.72;5074972;28;20468;-68
2023/02/23 10:13:54;;;;;;;74.47;24.85;;;;;;;8.90;99.31;100757.84;5076380;28;20086;-68
2023/02/23 10:16:51;;;;;;;74.38;24.98;;;;;;;8.94;98.61;100755.66;5073621;28;20036;-68
2023/02/23 10:19:35;;;;;;;73.57;24.67;;;;;;;9.02;99.44;100760.06;5077193;28;20422;-68
2023/02/23 10:22:05;;;;;;;71.80;24.77;;;;;;;9.10;99.22;100754.56;5077174;28;20032;-68
2023/02/23 10:24:42;;;;;;;82.63;25.42;;;;;;;9.17;98.87;100763.50;5076942;28;20021;-68
2023/02/23 10:27:19;;;;;;;67.70;25.38;;;;;;;9.19;98.90;100761.47;5076299;28;20106;-68
2023/02/23 10:29:52;;;;;;;73.72;26.00;;;;;;;9.22;99.15;100758.41;5077269;28;20008;-67
2023/02/23 10:32:38;;;;;;;75.07;25.45;;;;;;;9.26;98.77;100757.00;5077265;28;20129;-68
2023/02/23 10:35:15;;;;;;;72.68;24.40;;;;;;;9.21;99.29;100755.94;5075089;28;20111;-68
2023/02/23 10:37:40;;;;;;;76.90;24.83;;;;;;;9.18;99.06;100762.50;5074688;28;20545;-68
2023/02/23 10:40:15;;;;;;;75.70;25.15;;;;;;;9.22;100.00;100757.59;5075849;28;20028;-68
2023/02/23 10:42:40;;;;;;;;;;;;;;;9.25;99.79;100754.50;5075745;28;20115;-68
2023/02/23 10:45:18;;;;;;;80.07;23.23;;;;;;;9.13;99.72;100738.06;5075221;28;20406;-68
2023/02/23 10:47:44;;;;;;;89.88;24.73;;;;;;;9.09;99.63;100745.69;5076212;28;20029;-68
2023/02/23 10:50:12;;;;;;;74.50;23.33;;;;;;;9.09;99.78;100751.03;5076279;28;20048;-66
2023/02/23 10:52:45;;;;;;;65.00;22.63;;;;;;;9.10;99.89;100754.56;5077887;28;20070;-68
2023/02/23 10:55:26;;;;;;;79.93;24.48;;;;;;;8.92;100.00;100731.66;5079515;28;20025;-68
2023/02/23 10:58:19;;;;;;;58.58;21.63;;;;;;;9.08;100.00;100748.56;5095712;28;20016;-68
2023/02/23 11:00:52;;;;;;;77.50;22.50;;;;;;;9.21;99.80;100751.38;5080095;28;20044;-69
2023/02/23 11:03:26;;;;;;;68.68;22.75;;;;;;;9.10;99.88;100733.09;5079661;28;20047;-69
2023/02/23 11:05:54;;;;;;;73.77;22.97;;;;;;;9.25;100.00;100747.28;5081115;28;20566;-70
2023/02/23 11:08:20;;;;;;;66.70;21.75;;;;;;;9.32;100.00;100745.50;5079605;28;20033;-68
2023/02/23 11:11:02;;;;;;;68.32;22.38;;;;;;;9.34;99.83;100740.78;5080172;28;20047;-68
2023/02/23 11:13:44;;;;;;;66.05;19.63;;;;;;;9.44;99.61;100751.19;5096058;28;20628;-67
2023/02/23 11:16:15;;;;;;;58.17;19.27;;;;;;;9.35;99.99;100739.75;5095857;28;20017;-68
2023/02/23 11:18:49;;;;;;;51.65;19.00;;;;;;;9.37;100.00;100743.06;5080213;28;20071;-68
2023/02/23 11:21:22;;;;;;;48.35;17.80;;;;;;;9.42;100.00;100745.16;5096092;28;20090;-68
2023/02/23 11:23:51;;;;;;;53.45;19.27;;;;;;;9.47;100.00;100742.75;5081814;28;20036;-67
2023/02/23 11:26:30;;;;;;;49.55;16.48;;;;;;;9.47;100.00;100740.06;5081940;28;20031;-66
2023/02/23 11:28:59;;;;;;;46.15;16.95;;;;;;;9.61;100.00;100741.81;5081925;28;20036;-67
2023/02/23 11:31:34;;;;;;;35.60;15.05;;;;;;;9.37;100.00;100700.09;5081788;28;20107;-66
2023/02/23 11:34:01;;;;;;;;;;;;;;;9.58;100.00;100730.63;5082067;28;20451;-67
2023/02/23 11:36:30;;;;;;;36.63;15.13;;;;;;;9.51;100.00;100732.44;5082112;28;20184;-68
2023/02/23 11:39:29;;;;;;;33.67;13.98;;;;;;;9.62;100.00;100734.59;5096797;28;20071;-68
2023/02/23 11:42:13;;;;;;;35.08;15.15;;;;;;;9.66;99.92;100733.16;5064129;28;20484;-68
2023/02/23 11:44:39;;;;;;;37.47;15.43;;;;;;;9.68;100.00;100731.13;5097279;28;20020;-68
2023/02/23 11:47:10;;;;;;;38.83;16.52;;;;;;;9.66;100.00;100735.84;5090904;28;20289;-67
2023/02/23 11:49:37;;;;;;;43.58;17.27;;;;;;;9.57;100.00;100728.97;5075170;28;20016;-68
2023/02/23 11:52:13;;;;;;;49.30;18.77;;;;;;;9.62;100.00;100723.84;5077370;28;20025;-67
2023/02/23 11:54:47;;;;;;;60.72;20.13;;;;;;;9.62;100.00;100727.34;5092744;28;20040;-67
2023/02/23 11:57:25;;;;;;;69.00;19.33;;;;;;;9.54;100.00;100726.69;5078720;28;20070;-67
2023/02/23 11:59:51;;;;;;;78.25;23.58;;;;;;;9.52;100.00;100717.97;5078105;28;20027;-68
2023/02/23 12:02:25;;;;;;;85.10;24.98;;;;;;;9.56;100.00;100720.06;5076513;28;20091;-67
2023/02/23 12:05:06;;;;;;;83.22;24.25;;;;;;;9.51;100.00;100710.97;5093977;28;20035;-69
2023/02/23 12:07:45;;;;;;;102.55;26.77;;;;;;;9.58;100.00;100719.91;5078527;28;20058;-68
2023/02/23 12:10:33;;;;;;;99.43;27.08;;;;;;;9.68;100.00;100715.00;5079812;28;20020;-68
2023/02/23 12:13:10;;;;;;;124.13;28.38;;;;;;;9.73;100.00;100709.03;5095059;28;20025;-67
2023/02/23 12:15:54;;;;;;;114.30;28.05;;;;;;;9.79;100.00;100705.56;5079994;28;20028;-69
2023/02/23 12:18:40;;;;;;;113.20;28.98;;;;;;;9.80;100.00;100712.59;5079489;28;20127;-68
2023/02/23 12:21:37;;;;;;;102.70;28.00;;;;;;;9.82;100.00;100700.63;5081080;28;20036;-68
2023/02/23 12:24:18;;;;;;;98.75;28.30;;;;;;;9.88;100.00;100702.53;5079684;28;20031;-70
2023/02/23 12:26:58;;;;;;;93.65;28.70;;;;;;;9.87;100.00;100703.56;5081360;28;20033;-70
2023/02/23 12:29:36;;;;;;;105.03;29.48;;;;;;;9.81;100.00;100698.16;5080785;28;20040;-70
2023/02/23 12:32:11;;;;;;;95.10;28.65;;;;;;;9.93;100.00;100696.56;5095646;28;20028;-69
2023/02/23 12:34:55;;;;;;;89.75;29.73;;;;;;;9.98;100.00;100704.06;5080866;28;20056;-69
2023/02/23 12:37:46;;;;;;;96.72;28.95;;;;;;;10.04;100.00;100701.41;5080352;28;20054;-69
2023/02/23 12:40:28;;;;;;;94.32;28.92;;;;;;;10.00;100.00;100691.22;5096230;28;20025;-70
2023/02/23 12:43:01;;;;;;;105.22;28.80;;;;;;;9.94;100.00;100686.66;5096400;28;20039;-69
2023/02/23 12:45:38;;;;;;;98.80;29.63;;;;;;;9.88;100.00;100699.84;5080930;28;20020;-69
2023/02/23 12:48:23;;;;;;;83.55;26.73;;;;;;;9.82;100.00;100700.63;5078992;28;20025;-69
2023/02/23 12:50:53;;;;;;;92.00;28.85;;;;;;;9.76;100.00;100700.59;5080022;28;20057;-68
2023/02/23 12:53:36;;;;;;;94.13;29.10;;;;;;;9.80;100.00;100699.16;5077008;28;20043;-67